createdAt,value
2018-07-10T04:41:52.155Z,5.63
2018-07-10T04:45:03.442Z,3.77
2018-07-10T04:48:10.459Z,7.07
2018-07-10T04:51:20.931Z,4.40
2018-07-10T04:54:30.803Z,6.33
2018-07-10T04:58:09.462Z,8.10
2018-07-10T05:01:14.008Z,7.20
2018-07-10T05:04:17.156Z,6.93
2018-07-10T05:07:20.294Z,4.97
2018-07-10T05:10:23.998Z,7.00
2018-07-10T05:13:28.023Z,8.57
2018-07-10T05:16:31.199Z,3.03
2018-07-10T05:19:34.438Z,8.00
2018-07-10T05:22:37.659Z,7.10
2018-07-10T05:25:43.271Z,14.47
2018-07-10T05:28:50.360Z,6.43
2018-07-10T05:31:53.844Z,6.53
2018-07-10T05:34:57.038Z,8.10
2018-07-10T05:38:02.986Z,8.77
2018-07-10T05:41:06.790Z,7.17
2018-07-10T05:44:09.926Z,8.63
2018-07-10T05:47:13.094Z,6.20
2018-07-10T05:50:17.509Z,7.77
2018-07-10T05:53:20.662Z,8.83
2018-07-10T05:56:23.923Z,7.30
2018-07-10T05:59:27.069Z,6.13
2018-07-10T06:02:30.322Z,6.07
2018-07-10T06:05:33.502Z,5.50
2018-07-10T06:08:36.848Z,7.23
2018-07-10T06:11:40.069Z,8.07
2018-07-10T06:14:43.228Z,7.03
2018-07-10T06:17:46.518Z,6.07
2018-07-10T06:20:49.684Z,5.73
2018-07-10T06:23:52.831Z,5.30
2018-07-10T06:26:59.416Z,8.57
2018-07-10T06:30:06.454Z,10.50
2018-07-10T06:33:20.720Z,10.33
2018-07-10T06:36:25.849Z,5.87
2018-07-10T06:39:29.186Z,6.53
2018-07-10T06:42:36.637Z,8.67
2018-07-10T06:45:39.872Z,7.00
2018-07-10T06:48:48.642Z,7.87
2018-07-10T06:52:01.754Z,13.33
2018-07-10T06:55:06.131Z,10.97
2018-07-10T06:58:09.357Z,12.60
2018-07-10T07:01:13.533Z,10.30
2018-07-10T07:04:16.854Z,15.50
2018-07-10T07:07:20.057Z,5.80
2018-07-10T07:10:24.566Z,12.63
2018-07-10T07:13:27.726Z,8.53
2018-07-10T07:16:30.899Z,11.30
2018-07-10T07:19:34.059Z,8.40
2018-07-10T07:22:37.294Z,9.63
2018-07-10T07:25:40.431Z,9.63
2018-07-10T07:28:43.664Z,7.07
2018-07-10T07:31:46.840Z,8.43
2018-07-10T07:34:49.777Z,7.27
2018-07-10T07:37:53.478Z,8.63
2018-07-10T07:40:56.689Z,7.37
2018-07-10T07:43:59.988Z,9.47
2018-07-10T07:47:03.005Z,11.97
2018-07-10T07:50:06.231Z,7.47
2018-07-10T07:53:09.380Z,8.80
2018-07-10T07:56:12.534Z,10.67
2018-07-10T07:59:15.690Z,11.47
2018-07-10T08:02:18.939Z,8.67
2018-07-10T08:05:22.086Z,7.17
2018-07-10T08:08:25.254Z,7.57
2018-07-10T08:11:28.469Z,8.60
2018-07-10T08:14:31.719Z,9.10
2018-07-10T08:17:35.955Z,10.70
2018-07-10T08:20:39.115Z,9.23
2018-07-10T08:23:42.338Z,4.67
2018-07-10T08:26:45.657Z,4.53
2018-07-10T08:29:48.806Z,7.03
2018-07-10T08:32:52.387Z,7.53
2018-07-10T08:35:55.579Z,9.80
2018-07-10T08:38:58.760Z,8.97
2018-07-10T08:42:04.843Z,5.67
2018-07-10T08:45:08.019Z,8.30
2018-07-10T08:48:11.208Z,4.10
2018-07-10T08:51:14.991Z,10.27
2018-07-10T08:54:19.638Z,9.97
2018-07-10T08:57:22.808Z,7.43
2018-07-10T09:00:25.976Z,7.47
2018-07-10T09:03:29.146Z,9.83
2018-07-10T09:06:32.425Z,15.23
2018-07-10T09:09:35.682Z,8.33
2018-07-10T09:12:39.771Z,7.43
2018-07-10T09:15:42.747Z,10.23
2018-07-10T09:18:45.904Z,7.67
2018-07-10T09:22:04.360Z,8.70
2018-07-10T09:25:07.598Z,9.73
2018-07-10T09:28:10.840Z,7.63
2018-07-10T09:31:14.025Z,4.40
2018-07-10T09:34:17.589Z,7.23
2018-07-10T09:37:26.319Z,10.23
2018-07-10T09:40:29.585Z,9.60
2018-07-10T09:43:32.755Z,5.87
2018-07-10T09:46:36.023Z,8.87
2018-07-10T09:49:39.233Z,8.73
2018-07-10T09:52:42.399Z,10.47
2018-07-10T09:55:45.671Z,13.83
2018-07-10T09:58:50.415Z,5.97
2018-07-10T10:01:55.292Z,7.87
2018-07-10T10:04:59.730Z,8.27
2018-07-10T10:08:02.916Z,6.73
2018-07-10T10:11:06.093Z,5.90
2018-07-10T10:14:09.242Z,5.93
2018-07-10T10:17:12.391Z,7.23
2018-07-10T10:20:15.561Z,10.17
2018-07-10T10:23:18.710Z,10.90
2018-07-10T10:26:21.930Z,9.10
2018-07-10T10:29:25.073Z,9.67
2018-07-10T10:32:28.230Z,10.23
2018-07-10T10:35:31.475Z,10.10
2018-07-10T10:38:38.847Z,10.33
2018-07-10T10:41:42.059Z,10.53
2018-07-10T10:44:47.944Z,10.53
2018-07-10T10:47:51.351Z,9.90
2018-07-10T10:50:54.523Z,9.27
2018-07-10T10:53:58.144Z,10.53
2018-07-10T10:57:01.568Z,8.70
2018-07-10T11:00:05.456Z,10.80
2018-07-10T11:03:08.612Z,9.27
2018-07-10T11:06:11.842Z,9.20
2018-07-10T11:09:15.034Z,8.83
2018-07-10T11:12:18.686Z,11.63
2018-07-10T11:15:22.339Z,13.93
2018-07-10T11:18:36.327Z,11.83
2018-07-10T11:22:46.191Z,12.80
2018-07-10T11:25:49.848Z,11.10
2018-07-10T11:28:53.134Z,11.80
2018-07-10T11:31:56.325Z,13.90
2018-07-10T11:34:59.556Z,11.60
2018-07-10T11:38:06.362Z,19.13
2018-07-10T11:41:10.131Z,13.30
2018-07-10T11:44:13.302Z,13.27
2018-07-10T11:47:16.495Z,13.47
2018-07-10T11:50:19.872Z,12.70
2018-07-10T11:53:23.516Z,13.40
2018-07-10T11:56:26.830Z,11.93
2018-07-10T11:59:29.990Z,15.50
2018-07-10T12:02:48.838Z,18.03
2018-07-10T12:05:52.531Z,18.40
2018-07-10T12:08:56.660Z,19.67
2018-07-10T12:12:01.678Z,20.13
2018-07-10T12:15:05.047Z,18.57
2018-07-10T12:18:08.203Z,13.17
2018-07-10T12:21:14.754Z,11.87
2018-07-10T12:24:17.930Z,15.07
2018-07-10T12:27:21.137Z,10.90
2018-07-10T12:30:24.287Z,12.63
2018-07-10T12:33:27.452Z,12.13
2018-07-10T12:36:30.807Z,11.60
2018-07-10T12:39:33.973Z,12.13
2018-07-10T12:42:38.339Z,10.57
2018-07-10T12:45:41.486Z,13.03
2018-07-10T12:48:44.686Z,15.73
2018-07-10T12:51:47.886Z,13.23
2018-07-10T12:54:51.034Z,13.13
2018-07-10T12:57:54.490Z,16.90
2018-07-10T13:00:57.667Z,13.07
2018-07-10T13:04:00.820Z,12.90
2018-07-10T13:07:04.095Z,16.37
2018-07-10T13:10:07.369Z,13.00
2018-07-10T13:13:10.522Z,11.73
2018-07-10T13:16:13.683Z,7.87
2018-07-10T13:19:17.253Z,13.20
2018-07-10T13:22:20.418Z,9.90
2018-07-10T13:25:23.590Z,11.90
2018-07-10T13:28:26.836Z,9.43
2018-07-10T13:31:30.044Z,8.37
2018-07-10T13:34:33.261Z,7.87
2018-07-10T13:37:37.415Z,7.67
2018-07-10T13:40:40.679Z,4.27
2018-07-10T13:43:43.838Z,6.70
2018-07-10T13:46:47.006Z,9.17
2018-07-10T13:49:50.648Z,9.80
2018-07-10T13:52:54.929Z,8.03
2018-07-10T13:59:07.865Z,8.30
2018-07-10T14:02:11.066Z,5.70
2018-07-10T14:05:14.347Z,8.73
2018-07-10T14:08:17.518Z,12.10
2018-07-10T14:11:20.707Z,6.13
2018-07-10T14:14:23.626Z,5.37
2018-07-10T14:17:26.775Z,9.37
2018-07-10T14:20:35.507Z,8.43
2018-07-10T14:23:38.654Z,9.50
2018-07-10T14:26:41.798Z,9.33
2018-07-10T14:29:45.057Z,5.10
2018-07-10T14:32:48.227Z,4.70
2018-07-10T14:35:51.386Z,5.83
2018-07-10T14:38:54.575Z,4.73
2018-07-10T14:41:57.744Z,7.97
2018-07-10T14:45:04.261Z,5.33
2018-07-10T14:48:08.048Z,5.97
2018-07-10T14:51:11.582Z,5.40
2018-07-10T14:54:15.063Z,6.23
2018-07-10T14:57:18.383Z,6.40
2018-07-10T15:00:21.767Z,6.27
2018-07-10T15:03:24.911Z,5.67
2018-07-10T15:06:28.091Z,3.87
2018-07-10T15:09:31.893Z,5.23
2018-07-10T15:12:35.083Z,4.97
2018-07-10T15:15:38.411Z,5.37
2018-07-10T15:18:43.011Z,8.07
2018-07-10T15:21:46.232Z,4.90
2018-07-10T15:24:49.459Z,7.00
2018-07-10T15:27:52.684Z,4.37
2018-07-10T15:30:55.926Z,6.87
2018-07-10T15:33:59.831Z,4.77
2018-07-10T15:37:03.392Z,4.63
2018-07-10T15:40:06.590Z,4.73
2018-07-10T15:43:09.751Z,4.07
2018-07-10T15:46:12.917Z,4.37
2018-07-10T15:49:16.093Z,6.47
2018-07-10T15:52:19.782Z,3.90
2018-07-10T15:55:23.012Z,5.20
2018-07-10T15:58:26.735Z,4.07
2018-07-10T16:01:29.886Z,4.67
2018-07-10T16:04:33.488Z,5.17
2018-07-10T16:07:37.001Z,5.43
2018-07-10T16:10:40.462Z,5.00
2018-07-10T16:13:44.338Z,4.80
2018-07-10T16:16:47.895Z,3.80
2018-07-10T16:19:56.965Z,3.73
2018-07-10T16:23:00.135Z,4.50
2018-07-10T16:26:10.986Z,6.30
2018-07-10T16:29:17.651Z,4.83
2018-07-10T16:32:20.804Z,3.17
2018-07-10T16:35:24.178Z,7.03
2018-07-10T16:38:27.435Z,2.97
2018-07-10T16:41:35.910Z,1.40
2018-07-10T16:44:39.984Z,1.70
2018-07-10T16:47:52.694Z,3.20
2018-07-10T16:51:07.566Z,2.37
2018-07-10T16:54:10.730Z,5.47
2018-07-10T16:57:14.320Z,2.57
2018-07-10T17:00:17.715Z,1.40
2018-07-10T17:03:21.191Z,2.67
2018-07-10T17:06:24.106Z,2.63
2018-07-10T17:09:27.254Z,2.67
2018-07-10T17:12:30.394Z,2.23
2018-07-10T17:15:33.886Z,3.90
2018-07-10T17:18:37.041Z,3.77
2018-07-10T17:21:40.207Z,1.93
2018-07-10T17:24:43.375Z,4.07
2018-07-10T17:27:47.863Z,2.60
2018-07-10T17:30:51.017Z,1.10
2018-07-10T17:33:54.020Z,1.53
2018-07-10T17:36:57.155Z,2.97
2018-07-10T17:40:02.979Z,0.80
2018-07-10T17:43:07.070Z,1.83
2018-07-10T17:46:10.218Z,1.23
2018-07-10T17:49:13.366Z,1.70
2018-07-10T17:52:16.504Z,1.77
2018-07-10T17:55:20.230Z,3.33
2018-07-10T17:58:23.594Z,1.50
2018-07-10T18:01:26.610Z,3.73
2018-07-10T18:04:30.043Z,2.63
2018-07-10T18:07:33.169Z,2.30
2018-07-10T18:10:36.418Z,1.60
2018-07-10T18:13:39.566Z,3.03
2018-07-10T18:16:42.699Z,3.23
2018-07-10T18:19:45.848Z,2.87
2018-07-10T18:22:49.321Z,2.37
2018-07-10T18:25:52.399Z,0.97
2018-07-10T18:28:55.498Z,3.27
2018-07-10T18:31:58.643Z,1.60
2018-07-10T18:35:02.142Z,1.23
2018-07-10T18:38:05.054Z,2.43
2018-07-10T18:41:08.608Z,1.83
2018-07-10T18:44:11.753Z,1.13
2018-07-10T18:47:14.890Z,2.47
2018-07-10T18:50:17.805Z,1.00
2018-07-10T18:53:20.935Z,3.27
2018-07-10T18:56:24.092Z,1.60
2018-07-10T18:59:31.455Z,1.77
2018-07-10T19:02:41.495Z,1.87
2018-07-10T19:05:46.814Z,1.07
2018-07-10T19:08:49.973Z,0.90
2018-07-10T19:11:53.649Z,1.10
2018-07-10T19:14:56.818Z,0.83
2018-07-10T19:17:59.960Z,2.17
2018-07-10T19:21:15.930Z,0.73
2018-07-10T19:24:19.079Z,7.80
2018-07-10T19:27:30.400Z,1.00
2018-07-10T19:31:11.610Z,2.87
2018-07-10T19:34:14.792Z,0.97
2018-07-10T19:37:17.922Z,1.30
2018-07-10T19:40:21.076Z,2.03
2018-07-10T19:43:24.554Z,1.10
2018-07-10T19:46:28.251Z,2.73
2018-07-10T19:49:33.215Z,1.83
2018-07-10T19:52:36.389Z,0.90
2018-07-10T19:55:43.023Z,1.23
2018-07-10T19:58:46.153Z,1.70
2018-07-10T20:01:52.405Z,1.13
2018-07-10T20:05:00.227Z,1.37
2018-07-10T20:08:19.331Z,1.10
2018-07-10T20:11:30.618Z,1.57
2018-07-10T20:14:42.112Z,1.13
